Alyeska Resort
Max's Hourly Weather Roundup
ALYESKA_MAX 1/28/2015
Click Here for Graph

        DATE  TIME   Air  Wind  Wind  Wind  BATT   Rel
                    Temp   Spd   Dir  Gust  Volt  Hum%
                      F   MPH   AVG   MPH   AVG   AVG

   1/28/2015 12:00    20     3           4 13.79    82
   1/28/2015 11:00    19     3    77     5 13.51    83
   1/28/2015 10:00    19     4   176     7 12.79    82
   1/28/2015 09:00    18     6    82    14 12.79    85
   1/28/2015 08:00    18     7    91    13 12.80    87
   1/28/2015 07:00    17     8    85    15 12.81    85
   1/28/2015 06:00    16     8   105    16 12.82    84
   1/28/2015 05:00    16     6   123    16 12.83    76
   1/28/2015 04:00    16     3   128    12 12.84    66
   1/28/2015 03:00    17     4   159    11 12.86    65
   1/28/2015 02:00    17     4   102    16 12.87    63
   1/28/2015 01:00    17     5   159    13 12.88    68
   1/27/2015 24:00    17     3   261     5 12.89    77
   1/27/2015 23:00    18     4   159     7 12.91    78
   1/27/2015 22:00    18     2   196     6 12.92    83
   1/27/2015 21:00    18     1   241     2 12.94    89
   1/27/2015 20:00    17     2   119     3 12.97    90
   1/27/2015 19:00    17     3   134     5 13.00    91
   1/27/2015 18:00    18     1           2 13.08    89
   1/27/2015 17:00    20     2           3 13.58    85
   1/27/2015 16:00    21     2   217     3 13.74    82
   1/27/2015 15:00    22     3   247     5 13.77    80
   1/27/2015 14:00    22     3   256     5 13.72    77
   1/27/2015 13:00    25     1   190     3 13.72    74


Click Here for Graph